sensor_id;sensor_type;location;lat;lon;timestamp;pressure;altitude;pressure_sealevel;temperature;humidity
77112;BME280;66064;50.226;14.344;2023-10-19T00:01:57;98433.03;;;5.02;86.19
77112;BME280;66064;50.226;14.344;2023-10-19T00:04:25;98434.81;;;5.06;86.43
77112;BME280;66064;50.226;14.344;2023-10-19T00:06:52;98419.75;;;4.96;87.16
77112;BME280;66064;50.226;14.344;2023-10-19T00:09:21;98419.81;;;5.00;86.63
77112;BME280;66064;50.226;14.344;2023-10-19T00:11:47;98413.69;;;5.03;86.71
77112;BME280;66064;50.226;14.344;2023-10-19T00:14:16;98414.50;;;4.99;86.61
77112;BME280;66064;50.226;14.344;2023-10-19T00:16:46;98426.03;;;5.07;86.20
77112;BME280;66064;50.226;14.344;2023-10-19T00:19:33;98409.41;;;5.11;85.97
77112;BME280;66064;50.226;14.344;2023-10-19T00:22:05;98411.22;;;5.15;86.12
77112;BME280;66064;50.226;14.344;2023-10-19T00:24:35;98416.56;;;5.21;85.94
77112;BME280;66064;50.226;14.344;2023-10-19T00:27:01;98409.56;;;5.23;86.08
77112;BME280;66064;50.226;14.344;2023-10-19T00:29:35;98425.50;;;5.31;85.34
77112;BME280;66064;50.226;14.344;2023-10-19T00:32:06;98420.25;;;5.34;84.85
77112;BME280;66064;50.226;14.344;2023-10-19T00:34:38;98413.38;;;5.46;84.70
77112;BME280;66064;50.226;14.344;2023-10-19T00:37:05;98401.88;;;5.41;84.41
77112;BME280;66064;50.226;14.344;2023-10-19T00:39:37;98397.56;;;5.48;84.66
77112;BME280;66064;50.226;14.344;2023-10-19T00:42:23;98402.00;;;5.50;84.61
77112;BME280;66064;50.226;14.344;2023-10-19T00:44:55;98415.34;;;5.64;84.17
77112;BME280;66064;50.226;14.344;2023-10-19T00:47:30;98398.59;;;5.60;83.75
77112;BME280;66064;50.226;14.344;2023-10-19T00:50:07;98404.03;;;5.76;83.72
77112;BME280;66064;50.226;14.344;2023-10-19T00:52:38;98411.13;;;5.80;83.96
77112;BME280;66064;50.226;14.344;2023-10-19T00:55:10;98416.41;;;5.80;83.60
77112;BME280;66064;50.226;14.344;2023-10-19T00:57:40;98418.16;;;5.81;82.73
77112;BME280;66064;50.226;14.344;2023-10-19T01:00:12;98403.19;;;5.80;83.30
77112;BME280;66064;50.226;14.344;2023-10-19T01:02:48;98405.00;;;5.85;84.04
77112;BME280;66064;50.226;14.344;2023-10-19T01:05:17;98390.03;;;5.83;83.38
77112;BME280;66064;50.226;14.344;2023-10-19T01:07:47;98379.44;;;5.80;82.73
77112;BME280;66064;50.226;14.344;2023-10-19T01:10:21;98388.38;;;5.91;82.85
77112;BME280;66064;50.226;14.344;2023-10-19T01:12:49;98374.28;;;5.89;82.75
77112;BME280;66064;50.226;14.344;2023-10-19T01:15:17;98380.44;;;5.89;82.92
77112;BME280;66064;50.226;14.344;2023-10-19T01:17:52;98376.06;;;5.93;83.02
77112;BME280;66064;50.226;14.344;2023-10-19T01:20:24;98368.06;;;5.87;82.80
77112;BME280;66064;50.226;14.344;2023-10-19T01:22:57;98368.06;;;5.87;83.05
77112;BME280;66064;50.226;14.344;2023-10-19T01:25:55;98367.16;;;5.85;83.29
77112;BME280;66064;50.226;14.344;2023-10-19T01:28:23;98366.28;;;5.87;83.48
77112;BME280;66064;50.226;14.344;2023-10-19T01:31:12;98354.78;;;5.78;83.11
77112;BME280;66064;50.226;14.344;2023-10-19T01:34:03;98363.63;;;5.86;83.50
77112;BME280;66064;50.226;14.344;2023-10-19T01:36:33;98357.53;;;5.88;83.50
77112;BME280;66064;50.226;14.344;2023-10-19T01:39:08;98360.13;;;5.84;83.32
77112;BME280;66064;50.226;14.344;2023-10-19T01:41:38;98355.72;;;5.83;83.33
77112;BME280;66064;50.226;14.344;2023-10-19T01:44:07;98360.19;;;5.88;83.67
77112;BME280;66064;50.226;14.344;2023-10-19T01:46:35;98364.59;;;5.89;83.10
77112;BME280;66064;50.226;14.344;2023-10-19T01:49:03;98357.53;;;5.88;83.47
77112;BME280;66064;50.226;14.344;2023-10-19T01:51:31;98346.03;;;5.85;83.67
77112;BME280;66064;50.226;14.344;2023-10-19T01:54:05;98351.34;;;5.88;83.51
77112;BME280;66064;50.226;14.344;2023-10-19T01:56:33;98354.06;;;5.92;83.32
77112;BME280;66064;50.226;14.344;2023-10-19T01:59:05;98342.59;;;5.89;83.28
77112;BME280;66064;50.226;14.344;2023-10-19T02:01:32;98354.09;;;5.95;83.85
77112;BME280;66064;50.226;14.344;2023-10-19T02:04:02;98337.38;;;5.95;83.95
77112;BME280;66064;50.226;14.344;2023-10-19T02:06:32;98342.66;;;5.95;84.24
77112;BME280;66064;50.226;14.344;2023-10-19T02:09:11;98328.59;;;5.96;83.80
77112;BME280;66064;50.226;14.344;2023-10-19T02:11:54;98320.69;;;5.97;84.03
77112;BME280;66064;50.226;14.344;2023-10-19T02:14:23;98321.56;;;6.01;83.63
77112;BME280;66064;50.226;14.344;2023-10-19T02:16:53;98305.72;;;5.98;84.37
77112;BME280;66064;50.226;14.344;2023-10-19T02:19:24;98302.19;;;6.02;83.52
77112;BME280;66064;50.226;14.344;2023-10-19T02:21:53;98283.75;;;6.01;83.89
77112;BME280;66064;50.226;14.344;2023-10-19T02:24:20;98279.31;;;6.01;83.97
77112;BME280;66064;50.226;14.344;2023-10-19T02:26:50;98274.03;;;6.03;84.03
77112;BME280;66064;50.226;14.344;2023-10-19T02:29:20;98267.00;;;6.00;83.88
77112;BME280;66064;50.226;14.344;2023-10-19T02:31:49;98252.06;;;6.01;83.49
77112;BME280;66064;50.226;14.344;2023-10-19T02:34:15;98237.06;;;5.98;83.92
77112;BME280;66064;50.226;14.344;2023-10-19T02:36:43;98233.56;;;5.99;83.98
77112;BME280;66064;50.226;14.344;2023-10-19T02:39:11;98222.13;;;6.05;84.26
77112;BME280;66064;50.226;14.344;2023-10-19T02:41:41;98211.56;;;6.06;84.45
77112;BME280;66064;50.226;14.344;2023-10-19T02:44:10;98220.41;;;6.11;85.04
77112;BME280;66064;50.226;14.344;2023-10-19T02:46:46;98206.34;;;6.14;85.42
77112;BME280;66064;50.226;14.344;2023-10-19T02:49:14;98219.50;;;6.06;84.53
77112;BME280;66064;50.226;14.344;2023-10-19T02:51:45;98204.53;;;6.07;85.76
77112;BME280;66064;50.226;14.344;2023-10-19T02:54:19;98196.56;;;6.02;85.27
77112;BME280;66064;50.226;14.344;2023-10-19T02:56:50;98210.69;;;6.04;86.18
77112;BME280;66064;50.226;14.344;2023-10-19T02:59:18;98194.78;;;5.95;86.37
77112;BME280;66064;50.226;14.344;2023-10-19T03:01:52;98190.34;;;5.89;85.87
77112;BME280;66064;50.226;14.344;2023-10-19T03:04:27;98185.88;;;5.87;86.50
77112;BME280;66064;50.226;14.344;2023-10-19T03:06:56;98196.44;;;5.87;86.81
77112;BME280;66064;50.226;14.344;2023-10-19T03:09:22;98200.84;;;5.86;87.06
77112;BME280;66064;50.226;14.344;2023-10-19T03:11:55;98182.25;;;5.73;87.33
77112;BME280;66064;50.226;14.344;2023-10-19T03:14:26;98198.19;;;5.82;87.85
77112;BME280;66064;50.226;14.344;2023-10-19T03:16:53;98172.59;;;5.73;88.01
77112;BME280;66064;50.226;14.344;2023-10-19T03:19:23;98172.53;;;5.69;88.64
77112;BME280;66064;50.226;14.344;2023-10-19T03:21:53;98163.72;;;5.60;88.32
77112;BME280;66064;50.226;14.344;2023-10-19T03:24:21;98162.88;;;5.65;89.20
77112;BME280;66064;50.226;14.344;2023-10-19T03:27:13;98164.59;;;5.62;90.32
77112;BME280;66064;50.226;14.344;2023-10-19T03:29:46;98161.06;;;5.60;89.42
77112;BME280;66064;50.226;14.344;2023-10-19T03:32:14;98169.91;;;5.66;90.15
77112;BME280;66064;50.226;14.344;2023-10-19T03:34:45;98162.84;;;5.61;90.05
77112;BME280;66064;50.226;14.344;2023-10-19T03:37:14;98152.25;;;5.58;90.45
77112;BME280;66064;50.226;14.344;2023-10-19T03:39:41;98149.59;;;5.57;91.08
77112;BME280;66064;50.226;14.344;2023-10-19T03:42:11;98132.78;;;5.41;91.63
77112;BME280;66064;50.226;14.344;2023-10-19T03:44:41;98154.84;;;5.54;91.42
77112;BME280;66064;50.226;14.344;2023-10-19T03:47:19;98153.09;;;5.50;92.33
77112;BME280;66064;50.226;14.344;2023-10-19T03:49:47;98139.00;;;5.48;92.37
77112;BME280;66064;50.226;14.344;2023-10-19T03:52:14;98138.13;;;5.53;92.28
77112;BME280;66064;50.226;14.344;2023-10-19T03:54:43;98140.81;;;5.59;92.65
77112;BME280;66064;50.226;14.344;2023-10-19T03:57:15;98116.16;;;5.56;93.12
77112;BME280;66064;50.226;14.344;2023-10-19T03:59:46;98117.94;;;5.58;93.21
77112;BME280;66064;50.226;14.344;2023-10-19T04:02:15;98125.03;;;5.69;93.57
77112;BME280;66064;50.226;14.344;2023-10-19T04:04:43;98132.13;;;5.73;94.30
77112;BME280;66064;50.226;14.344;2023-10-19T04:07:10;98134.78;;;5.74;94.03
77112;BME280;66064;50.226;14.344;2023-10-19T04:09:42;98146.22;;;5.75;94.11
77112;BME280;66064;50.226;14.344;2023-10-19T04:12:27;98140.00;;;5.65;94.45
77112;BME280;66064;50.226;14.344;2023-10-19T04:14:58;98140.00;;;5.67;94.55
77112;BME280;66064;50.226;14.344;2023-10-19T04:17:36;98132.09;;;5.68;94.93
77112;BME280;66064;50.226;14.344;2023-10-19T04:20:05;98137.38;;;5.70;95.32
77112;BME280;66064;50.226;14.344;2023-10-19T04:22:45;98124.16;;;5.70;95.53
77112;BME280;66064;50.226;14.344;2023-10-19T04:25:13;98125.94;;;5.68;96.57
77112;BME280;66064;50.226;14.344;2023-10-19T04:27:39;98112.72;;;5.69;97.19
77112;BME280;66064;50.226;14.344;2023-10-19T04:30:09;98121.56;;;5.68;97.69
77112;BME280;66064;50.226;14.344;2023-10-19T04:32:45;98106.56;;;5.69;97.85
77112;BME280;66064;50.226;14.344;2023-10-19T04:35:13;98118.13;;;5.86;97.74
77112;BME280;66064;50.226;14.344;2023-10-19T04:37:40;98118.97;;;5.79;97.47
77112;BME280;66064;50.226;14.344;2023-10-19T04:40:11;98109.31;;;5.82;97.10
77112;BME280;66064;50.226;14.344;2023-10-19T04:42:38;98122.53;;;5.84;96.81
77112;BME280;66064;50.226;14.344;2023-10-19T04:45:05;98099.56;;;5.74;96.70
77112;BME280;66064;50.226;14.344;2023-10-19T04:47:34;98098.66;;;5.64;98.58
77112;BME280;66064;50.226;14.344;2023-10-19T04:50:04;98089.00;;;5.72;97.83
77112;BME280;66064;50.226;14.344;2023-10-19T04:52:32;98091.66;;;5.74;98.68
77112;BME280;66064;50.226;14.344;2023-10-19T04:54:59;98084.59;;;5.70;98.59
77112;BME280;66064;50.226;14.344;2023-10-19T04:57:26;98089.00;;;5.72;97.27
77112;BME280;66064;50.226;14.344;2023-10-19T04:59:54;98066.97;;;5.62;97.21
77112;BME280;66064;50.226;14.344;2023-10-19T05:02:21;98077.56;;;5.72;98.48
77112;BME280;66064;50.226;14.344;2023-10-19T05:04:47;98061.69;;;5.69;97.91
77112;BME280;66064;50.226;14.344;2023-10-19T05:07:14;98067.00;;;5.72;98.52
77112;BME280;66064;50.226;14.344;2023-10-19T05:09:44;98071.47;;;5.79;98.07
77112;BME280;66064;50.226;14.344;2023-10-19T05:12:11;98065.28;;;5.77;97.77
77112;BME280;66064;50.226;14.344;2023-10-19T05:14:41;98080.28;;;5.81;97.88
77112;BME280;66064;50.226;14.344;2023-10-19T05:17:09;98070.56;;;5.77;98.32
77112;BME280;66064;50.226;14.344;2023-10-19T05:19:36;98081.16;;;5.87;98.36
77112;BME280;66064;50.226;14.344;2023-10-19T05:22:08;98085.50;;;5.76;98.32
77112;BME280;66064;50.226;14.344;2023-10-19T05:24:37;98097.88;;;5.85;97.82
77112;BME280;66064;50.226;14.344;2023-10-19T05:27:03;98080.19;;;5.72;98.74
77112;BME280;66064;50.226;14.344;2023-10-19T05:29:33;98088.19;;;5.81;98.83
77112;BME280;66064;50.226;14.344;2023-10-19T05:31:59;98065.28;;;5.78;98.95
77112;BME280;66064;50.226;14.344;2023-10-19T05:34:26;98080.28;;;5.84;98.70
77112;BME280;66064;50.226;14.344;2023-10-19T05:36:54;98056.50;;;5.78;98.54
77112;BME280;66064;50.226;14.344;2023-10-19T05:39:24;98049.47;;;5.81;99.34
77112;BME280;66064;50.226;14.344;2023-10-19T05:41:57;98045.09;;;5.88;99.36
77112;BME280;66064;50.226;14.344;2023-10-19T05:44:28;98046.00;;;5.90;99.47
77112;BME280;66064;50.226;14.344;2023-10-19T05:46:56;98047.72;;;5.86;98.91
77112;BME280;66064;50.226;14.344;2023-10-19T05:49:24;98032.75;;;5.87;99.74
77112;BME280;66064;50.226;14.344;2023-10-19T05:51:51;98031.00;;;5.86;98.46
77112;BME280;66064;50.226;14.344;2023-10-19T05:54:17;98008.09;;;5.79;98.38
77112;BME280;66064;50.226;14.344;2023-10-19T05:56:43;98031.88;;;5.83;98.47
77112;BME280;66064;50.226;14.344;2023-10-19T05:59:09;98014.22;;;5.73;98.75
77112;BME280;66064;50.226;14.344;2023-10-19T06:01:36;98033.69;;;5.89;98.56
77112;BME280;66064;50.226;14.344;2023-10-19T06:04:07;98036.38;;;5.98;98.25
77112;BME280;66064;50.226;14.344;2023-10-19T06:06:33;98042.53;;;6.02;97.75
77112;BME280;66064;50.226;14.344;2023-10-19T06:09:00;98041.66;;;5.98;98.10
77112;BME280;66064;50.226;14.344;2023-10-19T06:11:31;98031.97;;;5.99;98.05
77112;BME280;66064;50.226;14.344;2023-10-19T06:13:59;98024.03;;;6.02;97.73
77112;BME280;66064;50.226;14.344;2023-10-19T06:16:25;98026.69;;;6.05;97.73
77112;BME280;66064;50.226;14.344;2023-10-19T06:18:51;98019.66;;;6.04;97.34
77112;BME280;66064;50.226;14.344;2023-10-19T06:21:18;98038.22;;;6.26;97.95
77112;BME280;66064;50.226;14.344;2023-10-19T06:23:45;98031.19;;;6.25;96.84
77112;BME280;66064;50.226;14.344;2023-10-19T06:26:11;97995.94;;;6.13;97.23
77112;BME280;66064;50.226;14.344;2023-10-19T06:28:39;98010.03;;;6.16;96.84
77112;BME280;66064;50.226;14.344;2023-10-19T06:31:07;98045.28;;;6.30;97.23
77112;BME280;66064;50.226;14.344;2023-10-19T06:33:33;98037.38;;;6.30;97.38
77112;BME280;66064;50.226;14.344;2023-10-19T06:35:59;98038.22;;;6.26;97.26
77112;BME280;66064;50.226;14.344;2023-10-19T06:38:29;98042.59;;;6.20;97.41
77112;BME280;66064;50.226;14.344;2023-10-19T06:40:57;98036.44;;;6.19;97.41
77112;BME280;66064;50.226;14.344;2023-10-19T06:43:24;98033.81;;;6.22;96.60
77112;BME280;66064;50.226;14.344;2023-10-19T06:45:55;98033.81;;;6.24;97.62
77112;BME280;66064;50.226;14.344;2023-10-19T06:48:21;98044.44;;;6.41;97.17
77112;BME280;66064;50.226;14.344;2023-10-19T06:50:47;98043.53;;;6.39;97.66
77112;BME280;66064;50.226;14.344;2023-10-19T06:53:13;98035.63;;;6.42;97.49
77112;BME280;66064;50.226;14.344;2023-10-19T06:55:40;98041.81;;;6.44;98.48
77112;BME280;66064;50.226;14.344;2023-10-19T06:58:06;98026.81;;;6.41;97.50
77112;BME280;66064;50.226;14.344;2023-10-19T07:00:34;98025.06;;;6.40;98.16
77112;BME280;66064;50.226;14.344;2023-10-19T07:03:08;98033.88;;;6.53;98.26
77112;BME280;66064;50.226;14.344;2023-10-19T07:05:34;98022.44;;;6.60;97.76
77112;BME280;66064;50.226;14.344;2023-10-19T07:08:01;98020.72;;;6.65;97.77
77112;BME280;66064;50.226;14.344;2023-10-19T07:10:28;98013.66;;;6.64;98.20
77112;BME280;66064;50.226;14.344;2023-10-19T07:12:56;98015.41;;;6.65;98.39
77112;BME280;66064;50.226;14.344;2023-10-19T07:15:23;98020.69;;;6.68;97.32
77112;BME280;66064;50.226;14.344;2023-10-19T07:17:51;98020.69;;;6.74;97.62
77112;BME280;66064;50.226;14.344;2023-10-19T07:20:20;98021.56;;;6.75;97.42
77112;BME280;66064;50.226;14.344;2023-10-19T07:23:03;98024.22;;;6.91;98.06
77112;BME280;66064;50.226;14.344;2023-10-19T07:25:38;98028.63;;;7.00;97.56
77112;BME280;66064;50.226;14.344;2023-10-19T07:28:11;98013.63;;;6.85;98.27
77112;BME280;66064;50.226;14.344;2023-10-19T07:30:43;98008.38;;;6.97;98.16
77112;BME280;66064;50.226;14.344;2023-10-19T07:33:12;98009.25;;;7.06;97.75
77112;BME280;66064;50.226;14.344;2023-10-19T07:35:46;97998.66;;;7.12;97.79
77112;BME280;66064;50.226;14.344;2023-10-19T07:38:14;97992.47;;;7.22;97.79
77112;BME280;66064;50.226;14.344;2023-10-19T07:40:40;97985.41;;;7.18;97.64
77112;BME280;66064;50.226;14.344;2023-10-19T07:43:06;97999.53;;;7.26;96.92
77112;BME280;66064;50.226;14.344;2023-10-19T07:45:34;98003.03;;;7.37;97.16
77112;BME280;66064;50.226;14.344;2023-10-19T07:48:00;97988.06;;;7.21;96.77
77112;BME280;66064;50.226;14.344;2023-10-19T07:50:35;98020.66;;;7.35;98.07
77112;BME280;66064;50.226;14.344;2023-10-19T07:53:01;98017.16;;;7.28;97.76
77112;BME280;66064;50.226;14.344;2023-10-19T07:55:27;98018.91;;;7.23;96.62
77112;BME280;66064;50.226;14.344;2023-10-19T07:57:55;98013.59;;;7.31;96.91
77112;BME280;66064;50.226;14.344;2023-10-19T08:00:22;97995.13;;;7.07;96.22
77112;BME280;66064;50.226;14.344;2023-10-19T08:02:49;98003.03;;;7.19;96.70
77112;BME280;66064;50.226;14.344;2023-10-19T08:05:17;98008.34;;;7.22;97.51
77112;BME280;66064;50.226;14.344;2023-10-19T08:07:47;98002.16;;;7.26;97.48
77112;BME280;66064;50.226;14.344;2023-10-19T08:10:15;98004.81;;;7.30;97.77
77112;BME280;66064;50.226;14.344;2023-10-19T08:12:43;97990.66;;;7.39;96.93
77112;BME280;66064;50.226;14.344;2023-10-19T08:15:11;98003.91;;;7.42;97.58
77112;BME280;66064;50.226;14.344;2023-10-19T08:17:39;97986.25;;;7.46;97.03
77112;BME280;66064;50.226;14.344;2023-10-19T08:20:07;97994.09;;;7.68;98.54
77112;BME280;66064;50.226;14.344;2023-10-19T08:22:50;97986.16;;;7.73;98.04
77112;BME280;66064;50.226;14.344;2023-10-19T08:25:17;97984.34;;;7.80;97.31
77112;BME280;66064;50.226;14.344;2023-10-19T08:27:47;97978.16;;;7.81;97.99
77112;BME280;66064;50.226;14.344;2023-10-19T08:30:21;97970.22;;;7.85;97.59
77112;BME280;66064;50.226;14.344;2023-10-19T08:32:48;97971.09;;;7.80;97.40
77112;BME280;66064;50.226;14.344;2023-10-19T08:35:15;97968.44;;;7.83;96.31
77112;BME280;66064;50.226;14.344;2023-10-19T08:37:41;97974.75;;;7.57;97.53
77112;BME280;66064;50.226;14.344;2023-10-19T08:40:11;97964.03;;;7.80;97.06
77112;BME280;66064;50.226;14.344;2023-10-19T08:42:45;97961.38;;;7.86;97.66
77112;BME280;66064;50.226;14.344;2023-10-19T08:45:12;97961.44;;;7.72;96.90
77112;BME280;66064;50.226;14.344;2023-10-19T08:47:59;97956.00;;;8.03;96.51
77112;BME280;66064;50.226;14.344;2023-10-19T08:50:29;97963.03;;;8.10;96.42
77112;BME280;66064;50.226;14.344;2023-10-19T08:52:57;97954.22;;;8.06;95.88
77112;BME280;66064;50.226;14.344;2023-10-19T08:55:23;97945.47;;;7.94;95.65
77112;BME280;66064;50.226;14.344;2023-10-19T08:57:51;97928.66;;;7.98;95.90
77112;BME280;66064;50.226;14.344;2023-10-19T09:00:19;97947.94;;;8.20;96.30
77112;BME280;66064;50.226;14.344;2023-10-19T09:02:45;97977.00;;;8.43;96.74
77112;BME280;66064;50.226;14.344;2023-10-19T09:05:12;97970.88;;;8.34;94.75
77112;BME280;66064;50.226;14.344;2023-10-19T09:07:56;97975.13;;;8.60;94.01
77112;BME280;66064;50.226;14.344;2023-10-19T09:10:26;97973.41;;;8.50;93.78
77112;BME280;66064;50.226;14.344;2023-10-19T09:13:01;97963.69;;;8.52;94.56
77112;BME280;66064;50.226;14.344;2023-10-19T09:15:28;97966.19;;;8.71;94.44
77112;BME280;66064;50.226;14.344;2023-10-19T09:18:18;97963.78;;;8.39;92.62
77112;BME280;66064;50.226;14.344;2023-10-19T09:20:46;97966.94;;;8.87;94.61
77112;BME280;66064;50.226;14.344;2023-10-19T09:23:23;97935.91;;;8.94;93.49
77112;BME280;66064;50.226;14.344;2023-10-19T09:25:50;97926.00;;;9.12;93.33
77112;BME280;66064;50.226;14.344;2023-10-19T09:28:19;97927.63;;;9.26;92.77
77112;BME280;66064;50.226;14.344;2023-10-19T09:30:46;97928.47;;;9.32;93.31
77112;BME280;66064;50.226;14.344;2023-10-19T09:33:13;97929.81;;;9.68;91.75
77112;BME280;66064;50.226;14.344;2023-10-19T09:35:50;97923.56;;;9.72;92.92
77112;BME280;66064;50.226;14.344;2023-10-19T09:38:22;97930.44;;;9.89;90.62
77112;BME280;66064;50.226;14.344;2023-10-19T09:40:52;97939.41;;;10.44;88.73
77112;BME280;66064;50.226;14.344;2023-10-19T09:43:44;97934.59;;;10.08;86.70
77112;BME280;66064;50.226;14.344;2023-10-19T09:46:12;97935.41;;;10.13;88.30
77112;BME280;66064;50.226;14.344;2023-10-19T09:48:43;97933.63;;;10.15;87.42
77112;BME280;66064;50.226;14.344;2023-10-19T09:51:11;97937.69;;;10.97;86.35
77112;BME280;66064;50.226;14.344;2023-10-19T09:53:39;97929.38;;;11.15;82.85
77112;BME280;66064;50.226;14.344;2023-10-19T09:56:08;97933.81;;;12.06;81.77
77112;BME280;66064;50.226;14.344;2023-10-19T09:58:45;97924.09;;;12.43;77.94
77112;BME280;66064;50.226;14.344;2023-10-19T10:01:12;97927.47;;;12.87;77.37
77112;BME280;66064;50.226;14.344;2023-10-19T10:03:47;97918.00;;;12.74;74.07
77112;BME280;66064;50.226;14.344;2023-10-19T10:06:15;97897.88;;;13.62;70.87
77112;BME280;66064;50.226;14.344;2023-10-19T10:08:43;97897.28;;;14.43;69.55
77112;BME280;66064;50.226;14.344;2023-10-19T10:11:21;97889.44;;;15.67;63.63
77112;BME280;66064;50.226;14.344;2023-10-19T10:13:49;97879.84;;;17.19;60.05
77112;BME280;66064;50.226;14.344;2023-10-19T10:16:23;97889.97;;;15.52;60.47
77112;BME280;66064;50.226;14.344;2023-10-19T10:18:57;97887.03;;;15.34;61.23
77112;BME280;66064;50.226;14.344;2023-10-19T10:21:29;97873.88;;;17.92;57.33
77112;BME280;66064;50.226;14.344;2023-10-19T10:24:00;97850.75;;;18.81;54.35
77112;BME280;66064;50.226;14.344;2023-10-19T10:26:30;97859.06;;;17.83;55.89
77112;BME280;66064;50.226;14.344;2023-10-19T10:29:13;97865.38;;;17.41;54.48
77112;BME280;66064;50.226;14.344;2023-10-19T10:31:47;97869.69;;;16.16;59.78
77112;BME280;66064;50.226;14.344;2023-10-19T10:37:02;97873.06;;;13.88;63.89
77112;BME280;66064;50.226;14.344;2023-10-19T10:39:30;97876.19;;;14.02;65.03
77112;BME280;66064;50.226;14.344;2023-10-19T10:42:00;97873.19;;;13.53;67.08
77112;BME280;66064;50.226;14.344;2023-10-19T10:44:42;97865.63;;;13.38;66.76
77112;BME280;66064;50.226;14.344;2023-10-19T10:47:11;97862.28;;;13.29;68.35
77112;BME280;66064;50.226;14.344;2023-10-19T10:49:59;97862.34;;;13.59;66.11
77112;BME280;66064;50.226;14.344;2023-10-19T10:52:31;97857.50;;;14.01;64.92
77112;BME280;66064;50.226;14.344;2023-10-19T10:55:02;97844.81;;;13.80;66.73
77112;BME280;66064;50.226;14.344;2023-10-19T10:57:33;97849.03;;;13.57;66.56
77112;BME280;66064;50.226;14.344;2023-10-19T11:00:17;97861.94;;;12.38;69.40
77112;BME280;66064;50.226;14.344;2023-10-19T11:02:47;97850.28;;;12.78;71.42
77112;BME280;66064;50.226;14.344;2023-10-19T11:05:14;97837.88;;;13.09;69.16
77112;BME280;66064;50.226;14.344;2023-10-19T11:10:33;97829.78;;;13.12;69.37
77112;BME280;66064;50.226;14.344;2023-10-19T11:13:01;97817.66;;;12.99;68.63
77112;BME280;66064;50.226;14.344;2023-10-19T11:15:27;97827.88;;;13.17;69.69
77112;BME280;66064;50.226;14.344;2023-10-19T11:17:54;97818.88;;;13.21;68.58
77112;BME280;66064;50.226;14.344;2023-10-19T11:20:24;97830.50;;;12.85;69.71
77112;BME280;66064;50.226;14.344;2023-10-19T11:22:55;97811.97;;;12.80;69.92
77112;BME280;66064;50.226;14.344;2023-10-19T11:25:24;97810.97;;;12.83;71.15
77112;BME280;66064;50.226;14.344;2023-10-19T11:27:57;97801.00;;;13.23;70.28
77112;BME280;66064;50.226;14.344;2023-10-19T11:30:30;97805.75;;;13.45;69.06
77112;BME280;66064;50.226;14.344;2023-10-19T11:32:59;97797.06;;;13.37;68.60
77112;BME280;66064;50.226;14.344;2023-10-19T11:35:28;97798.25;;;13.26;68.73
77112;BME280;66064;50.226;14.344;2023-10-19T11:38:00;97786.06;;;14.05;68.81
77112;BME280;66064;50.226;14.344;2023-10-19T11:40:28;97784.09;;;14.38;66.99
77112;BME280;66064;50.226;14.344;2023-10-19T11:42:55;97799.13;;;14.43;64.83
77112;BME280;66064;50.226;14.344;2023-10-19T11:45:26;97796.44;;;14.43;64.77
77112;BME280;66064;50.226;14.344;2023-10-19T11:47:52;97791.91;;;13.89;68.18
77112;BME280;66064;50.226;14.344;2023-10-19T11:50:19;97787.03;;;13.74;67.48
77112;BME280;66064;50.226;14.344;2023-10-19T11:52:45;97784.31;;;13.76;68.07
77112;BME280;66064;50.226;14.344;2023-10-19T11:55:12;97785.88;;;13.83;67.00
77112;BME280;66064;50.226;14.344;2023-10-19T11:57:42;97789.25;;;13.60;68.43
77112;BME280;66064;50.226;14.344;2023-10-19T12:00:11;97786.81;;;13.80;68.24
77112;BME280;66064;50.226;14.344;2023-10-19T12:02:40;97780.56;;;13.52;67.94
77112;BME280;66064;50.226;14.344;2023-10-19T12:05:09;97783.22;;;13.53;68.75
77112;BME280;66064;50.226;14.344;2023-10-19T12:07:39;97789.63;;;13.77;68.53
77112;BME280;66064;50.226;14.344;2023-10-19T12:10:10;97793.56;;;13.93;69.45
77112;BME280;66064;50.226;14.344;2023-10-19T12:12:37;97789.97;;;14.22;67.05
77112;BME280;66064;50.226;14.344;2023-10-19T12:15:08;97788.88;;;14.00;65.91
77112;BME280;66064;50.226;14.344;2023-10-19T12:17:34;97785.97;;;14.08;67.01
77112;BME280;66064;50.226;14.344;2023-10-19T12:20:00;97779.38;;;14.46;65.77
77112;BME280;66064;50.226;14.344;2023-10-19T12:22:26;97780.81;;;14.57;65.49
77112;BME280;66064;50.226;14.344;2023-10-19T12:24:57;97776.56;;;13.96;66.87
77112;BME280;66064;50.226;14.344;2023-10-19T12:27:24;97772.84;;;13.43;69.06
77112;BME280;66064;50.226;14.344;2023-10-19T12:29:54;97761.09;;;13.17;69.80
77112;BME280;66064;50.226;14.344;2023-10-19T12:32:22;97762.94;;;13.15;70.24
77112;BME280;66064;50.226;14.344;2023-10-19T12:34:50;97775.94;;;12.96;70.26
77112;BME280;66064;50.226;14.344;2023-10-19T12:37:19;97757.91;;;13.36;70.90
77112;BME280;66064;50.226;14.344;2023-10-19T12:39:45;97762.78;;;13.51;70.31
77112;BME280;66064;50.226;14.344;2023-10-19T12:42:15;97767.41;;;13.75;69.08
77112;BME280;66064;50.226;14.344;2023-10-19T12:44:42;97749.06;;;13.63;68.58
77112;BME280;66064;50.226;14.344;2023-10-19T12:47:10;97761.75;;;13.84;68.24
77112;BME280;66064;50.226;14.344;2023-10-19T12:49:42;97759.44;;;14.56;67.05
77112;BME280;66064;50.226;14.344;2023-10-19T12:52:08;97752.59;;;14.97;66.63
77112;BME280;66064;50.226;14.344;2023-10-19T12:54:37;97748.09;;;14.48;67.83
77112;BME280;66064;50.226;14.344;2023-10-19T12:57:04;97731.97;;;14.76;67.35
77112;BME280;66064;50.226;14.344;2023-10-19T12:59:35;97733.75;;;14.50;66.75
77112;BME280;66064;50.226;14.344;2023-10-19T13:02:05;97728.06;;;14.33;66.60
77112;BME280;66064;50.226;14.344;2023-10-19T13:04:34;97728.66;;;14.15;67.76
77112;BME280;66064;50.226;14.344;2023-10-19T13:07:00;97730.06;;;13.72;69.20
77112;BME280;66064;50.226;14.344;2023-10-19T13:09:28;97732.50;;;13.80;70.11
77112;BME280;66064;50.226;14.344;2023-10-19T13:11:59;97729.25;;;13.96;67.88
77112;BME280;66064;50.226;14.344;2023-10-19T13:14:27;97719.44;;;13.97;69.04
77112;BME280;66064;50.226;14.344;2023-10-19T13:16:54;97726.13;;;14.12;69.53
77112;BME280;66064;50.226;14.344;2023-10-19T13:19:23;97719.94;;;14.10;69.21